sensor_id;sensor_type;location;lat;lon;timestamp;temperature;humidity
50838;DHT22;36815;50.884;20.584;2022-07-06T00:00:17;24;75
50838;DHT22;36815;50.884;20.584;2022-07-06T00:07:17;23;75
50838;DHT22;36815;50.884;20.584;2022-07-06T00:14:15;23;75
50838;DHT22;36815;50.884;20.584;2022-07-06T00:21:04;23;75
50838;DHT22;36815;50.884;20.584;2022-07-06T00:28:04;23;75
50838;DHT22;36815;50.884;20.584;2022-07-06T00:35:20;24;72
50838;DHT22;36815;50.884;20.584;2022-07-06T00:42:18;24;72
50838;DHT22;36815;50.884;20.584;2022-07-06T00:49:05;24;72
50838;DHT22;36815;50.884;20.584;2022-07-06T00:56:04;24;72
50838;DHT22;36815;50.884;20.584;2022-07-06T01:07:02;26;73
50838;DHT22;36815;50.884;20.584;2022-07-06T01:14:03;26;73
50838;DHT22;36815;50.884;20.584;2022-07-06T01:21:18;26;73
50838;DHT22;36815;50.884;20.584;2022-07-06T01:28:03;26;73
50838;DHT22;36815;50.884;20.584;2022-07-06T01:35:21;26;82
50838;DHT22;36815;50.884;20.584;2022-07-06T01:42:07;26;82
50838;DHT22;36815;50.884;20.584;2022-07-06T01:49:03;26;82
50838;DHT22;36815;50.884;20.584;2022-07-06T01:56:16;26;82
50838;DHT22;36815;50.884;20.584;2022-07-06T02:00:05;26;82
50838;DHT22;36815;50.884;20.584;2022-07-06T02:07:04;25;80
50838;DHT22;36815;50.884;20.584;2022-07-06T02:14:18;25;80
50838;DHT22;36815;50.884;20.584;2022-07-06T02:21:19;25;80
50838;DHT22;36815;50.884;20.584;2022-07-06T02:28:18;25;80
50838;DHT22;36815;50.884;20.584;2022-07-06T02:35:08;25;84
50838;DHT22;36815;50.884;20.584;2022-07-06T02:42:16;25;84
50838;DHT22;36815;50.884;20.584;2022-07-06T02:49:20;25;84
50838;DHT22;36815;50.884;20.584;2022-07-06T02:56:02;25;84
50838;DHT22;36815;50.884;20.584;2022-07-06T03:00:20;25;84
50838;DHT22;36815;50.884;20.584;2022-07-06T03:07:15;24;87
50838;DHT22;36815;50.884;20.584;2022-07-06T03:14:06;24;87
50838;DHT22;36815;50.884;20.584;2022-07-06T03:21:02;24;87
50838;DHT22;36815;50.884;20.584;2022-07-06T03:28:17;24;87
50838;DHT22;36815;50.884;20.584;2022-07-06T03:35:05;24;89
50838;DHT22;36815;50.884;20.584;2022-07-06T03:42:06;24;89
50838;DHT22;36815;50.884;20.584;2022-07-06T03:49:06;24;89
50838;DHT22;36815;50.884;20.584;2022-07-06T03:56:03;24;89
50838;DHT22;36815;50.884;20.584;2022-07-06T04:00:16;24;89
50838;DHT22;36815;50.884;20.584;2022-07-06T04:07:18;24;90
50838;DHT22;36815;50.884;20.584;2022-07-06T04:14:02;24;90
50838;DHT22;36815;50.884;20.584;2022-07-06T04:21:16;24;90
50838;DHT22;36815;50.884;20.584;2022-07-06T04:28:05;24;90
50838;DHT22;36815;50.884;20.584;2022-07-06T04:35:10;24;90
50838;DHT22;36815;50.884;20.584;2022-07-06T04:42:19;24;90
50838;DHT22;36815;50.884;20.584;2022-07-06T04:49:02;24;90
50838;DHT22;36815;50.884;20.584;2022-07-06T04:56:15;24;90
50838;DHT22;36815;50.884;20.584;2022-07-06T05:00:02;24;90
50838;DHT22;36815;50.884;20.584;2022-07-06T05:07:17;23;91
50838;DHT22;36815;50.884;20.584;2022-07-06T05:14:02;23;91
50838;DHT22;36815;50.884;20.584;2022-07-06T05:21:18;23;91
50838;DHT22;36815;50.884;20.584;2022-07-06T05:28:03;23;91
50838;DHT22;36815;50.884;20.584;2022-07-06T05:35:03;23;92
50838;DHT22;36815;50.884;20.584;2022-07-06T05:42:20;23;92
50838;DHT22;36815;50.884;20.584;2022-07-06T05:56:07;23;92
50838;DHT22;36815;50.884;20.584;2022-07-06T06:00:01;23;92
50838;DHT22;36815;50.884;20.584;2022-07-06T06:07:17;23;92
50838;DHT22;36815;50.884;20.584;2022-07-06T06:14:04;23;92
50838;DHT22;36815;50.884;20.584;2022-07-06T06:21:15;23;92
50838;DHT22;36815;50.884;20.584;2022-07-06T06:28:22;23;92
50838;DHT22;36815;50.884;20.584;2022-07-06T06:35:06;23;92
50838;DHT22;36815;50.884;20.584;2022-07-06T06:42:13;23;92
50838;DHT22;36815;50.884;20.584;2022-07-06T06:49:18;23;92
50838;DHT22;36815;50.884;20.584;2022-07-06T06:56:02;23;92
50838;DHT22;36815;50.884;20.584;2022-07-06T07:00:19;23;92
50838;DHT22;36815;50.884;20.584;2022-07-06T07:07:07;24;92
50838;DHT22;36815;50.884;20.584;2022-07-06T07:14:17;24;92
50838;DHT22;36815;50.884;20.584;2022-07-06T07:21:04;24;92
50838;DHT22;36815;50.884;20.584;2022-07-06T07:28:16;24;92
50838;DHT22;36815;50.884;20.584;2022-07-06T07:35:17;24;92
50838;DHT22;36815;50.884;20.584;2022-07-06T07:42:15;24;92
50838;DHT22;36815;50.884;20.584;2022-07-06T07:49:24;24;92
50838;DHT22;36815;50.884;20.584;2022-07-06T07:56:07;24;92
50838;DHT22;36815;50.884;20.584;2022-07-06T08:00:03;24;92
50838;DHT22;36815;50.884;20.584;2022-07-06T08:07:05;23;92
50838;DHT22;36815;50.884;20.584;2022-07-06T08:14:18;23;92
50838;DHT22;36815;50.884;20.584;2022-07-06T08:21:10;23;92
50838;DHT22;36815;50.884;20.584;2022-07-06T08:28:16;23;92
50838;DHT22;36815;50.884;20.584;2022-07-06T08:42:30;23;93
50838;DHT22;36815;50.884;20.584;2022-07-06T08:49:06;23;93
50838;DHT22;36815;50.884;20.584;2022-07-06T08:56:19;23;93
50838;DHT22;36815;50.884;20.584;2022-07-06T09:14:04;23;92
50838;DHT22;36815;50.884;20.584;2022-07-06T09:21:25;23;92
50838;DHT22;36815;50.884;20.584;2022-07-06T09:28:03;23;92
50838;DHT22;36815;50.884;20.584;2022-07-06T09:35:22;23;92
50838;DHT22;36815;50.884;20.584;2022-07-06T09:42:14;23;92
50838;DHT22;36815;50.884;20.584;2022-07-06T09:49:02;23;92
50838;DHT22;36815;50.884;20.584;2022-07-06T09:56:06;23;92
50838;DHT22;36815;50.884;20.584;2022-07-06T10:00:19;23;92
50838;DHT22;36815;50.884;20.584;2022-07-06T10:14:40;23;92
50838;DHT22;36815;50.884;20.584;2022-07-06T10:21:22;23;92
50838;DHT22;36815;50.884;20.584;2022-07-06T10:28:19;23;92
50838;DHT22;36815;50.884;20.584;2022-07-06T10:35:10;23;92
50838;DHT22;36815;50.884;20.584;2022-07-06T10:42:47;23;93
50838;DHT22;36815;50.884;20.584;2022-07-06T10:49:14;23;93
50838;DHT22;36815;50.884;20.584;2022-07-06T10:56:42;23;93
50838;DHT22;36815;50.884;20.584;2022-07-06T11:00:24;23;93
50838;DHT22;36815;50.884;20.584;2022-07-06T11:14:13;23;93
50838;DHT22;36815;50.884;20.584;2022-07-06T11:21:20;23;93
50838;DHT22;36815;50.884;20.584;2022-07-06T11:28:05;23;93
50838;DHT22;36815;50.884;20.584;2022-07-06T11:35:07;23;93
50838;DHT22;36815;50.884;20.584;2022-07-06T11:42:04;23;93
50838;DHT22;36815;50.884;20.584;2022-07-06T11:49:34;23;93
50838;DHT22;36815;50.884;20.584;2022-07-06T11:56:05;23;93
50838;DHT22;36815;50.884;20.584;2022-07-06T12:00:22;23;93
50838;DHT22;36815;50.884;20.584;2022-07-06T12:14:20;24;93
50838;DHT22;36815;50.884;20.584;2022-07-06T12:21:03;24;93
50838;DHT22;36815;50.884;20.584;2022-07-06T12:28:23;24;93
50838;DHT22;36815;50.884;20.584;2022-07-06T12:35:07;24;93
50838;DHT22;36815;50.884;20.584;2022-07-06T12:42:08;25;91
50838;DHT22;36815;50.884;20.584;2022-07-06T12:49:10;25;91
50838;DHT22;36815;50.884;20.584;2022-07-06T12:56:16;25;91
50838;DHT22;36815;50.884;20.584;2022-07-06T13:00:20;25;91
50838;DHT22;36815;50.884;20.584;2022-07-06T13:14:02;25;90
50838;DHT22;36815;50.884;20.584;2022-07-06T13:21:16;25;90
50838;DHT22;36815;50.884;20.584;2022-07-06T13:28:05;25;90
50838;DHT22;36815;50.884;20.584;2022-07-06T13:35:15;25;90
50838;DHT22;36815;50.884;20.584;2022-07-06T13:42:14;24;90
50838;DHT22;36815;50.884;20.584;2022-07-06T13:49:18;24;90
50838;DHT22;36815;50.884;20.584;2022-07-06T13:56:23;24;90
50838;DHT22;36815;50.884;20.584;2022-07-06T14:00:16;24;90
50838;DHT22;36815;50.884;20.584;2022-07-06T14:07:17;24;90
50838;DHT22;36815;50.884;20.584;2022-07-06T14:14:03;25;96
50838;DHT22;36815;50.884;20.584;2022-07-06T14:21:16;25;96
50838;DHT22;36815;50.884;20.584;2022-07-06T14:28:14;25;96
50838;DHT22;36815;50.884;20.584;2022-07-06T14:35:15;25;96
50838;DHT22;36815;50.884;20.584;2022-07-06T14:42:06;26;94
50838;DHT22;36815;50.884;20.584;2022-07-06T14:49:17;26;94
50838;DHT22;36815;50.884;20.584;2022-07-06T14:56:05;26;94
50838;DHT22;36815;50.884;20.584;2022-07-06T15:00:02;26;94
50838;DHT22;36815;50.884;20.584;2022-07-06T15:07:05;26;94
50838;DHT22;36815;50.884;20.584;2022-07-06T15:14:18;24;69
50838;DHT22;36815;50.884;20.584;2022-07-06T15:21:02;24;69
50838;DHT22;36815;50.884;20.584;2022-07-06T15:28:06;24;69
50838;DHT22;36815;50.884;20.584;2022-07-06T15:35:08;24;69
50838;DHT22;36815;50.884;20.584;2022-07-06T15:42:02;24;69
50838;DHT22;36815;50.884;20.584;2022-07-06T15:49:04;24;69
50838;DHT22;36815;50.884;20.584;2022-07-06T15:56:18;24;69
50838;DHT22;36815;50.884;20.584;2022-07-06T16:00:08;24;69
50838;DHT22;36815;50.884;20.584;2022-07-06T16:07:03;24;69
50838;DHT22;36815;50.884;20.584;2022-07-06T16:14:02;24;69
50838;DHT22;36815;50.884;20.584;2022-07-06T16:21:19;24;69
50838;DHT22;36815;50.884;20.584;2022-07-06T16:28:04;24;69
50838;DHT22;36815;50.884;20.584;2022-07-06T16:35:23;24;69
50838;DHT22;36815;50.884;20.584;2022-07-06T16:42:17;24;69
50838;DHT22;36815;50.884;20.584;2022-07-06T16:49:20;24;69
50838;DHT22;36815;50.884;20.584;2022-07-06T16:56:04;24;69
50838;DHT22;36815;50.884;20.584;2022-07-06T17:00:22;24;69
50838;DHT22;36815;50.884;20.584;2022-07-06T17:07:06;24;69
50838;DHT22;36815;50.884;20.584;2022-07-06T17:14:04;24;72
50838;DHT22;36815;50.884;20.584;2022-07-06T17:21:02;24;72
50838;DHT22;36815;50.884;20.584;2022-07-06T17:28:03;24;72
50838;DHT22;36815;50.884;20.584;2022-07-06T17:35:05;24;72
50838;DHT22;36815;50.884;20.584;2022-07-06T17:42:20;24;72
50838;DHT22;36815;50.884;20.584;2022-07-06T17:49:04;24;72
50838;DHT22;36815;50.884;20.584;2022-07-06T17:56:21;24;72
50838;DHT22;36815;50.884;20.584;2022-07-06T18:00:03;24;72
50838;DHT22;36815;50.884;20.584;2022-07-06T18:07:02;24;72
50838;DHT22;36815;50.884;20.584;2022-07-06T18:14:02;24;73
50838;DHT22;36815;50.884;20.584;2022-07-06T18:21:06;24;73
50838;DHT22;36815;50.884;20.584;2022-07-06T18:28:03;24;73
50838;DHT22;36815;50.884;20.584;2022-07-06T18:35:23;24;73
50838;DHT22;36815;50.884;20.584;2022-07-06T18:49:18;24;72
50838;DHT22;36815;50.884;20.584;2022-07-06T18:56:02;24;72
50838;DHT22;36815;50.884;20.584;2022-07-06T19:00:03;24;72
50838;DHT22;36815;50.884;20.584;2022-07-06T19:07:19;24;72
50838;DHT22;36815;50.884;20.584;2022-07-06T19:21:19;23;72
50838;DHT22;36815;50.884;20.584;2022-07-06T19:28:18;23;72
50838;DHT22;36815;50.884;20.584;2022-07-06T19:35:10;23;72
50838;DHT22;36815;50.884;20.584;2022-07-06T19:49:06;23;72
50838;DHT22;36815;50.884;20.584;2022-07-06T19:56:18;23;72
50838;DHT22;36815;50.884;20.584;2022-07-06T20:00:13;23;72
50838;DHT22;36815;50.884;20.584;2022-07-06T20:07:17;23;72
50838;DHT22;36815;50.884;20.584;2022-07-06T20:21:15;24;70
50838;DHT22;36815;50.884;20.584;2022-07-06T20:28:17;24;70
50838;DHT22;36815;50.884;20.584;2022-07-06T20:35:15;24;70
50838;DHT22;36815;50.884;20.584;2022-07-06T20:49:03;24;70
50838;DHT22;36815;50.884;20.584;2022-07-06T20:56:06;24;70
50838;DHT22;36815;50.884;20.584;2022-07-06T21:00:20;24;70
50838;DHT22;36815;50.884;20.584;2022-07-06T21:07:03;24;70
50838;DHT22;36815;50.884;20.584;2022-07-06T21:21:07;24;71
50838;DHT22;36815;50.884;20.584;2022-07-06T21:28:05;24;71
50838;DHT22;36815;50.884;20.584;2022-07-06T21:35:07;24;71
50838;DHT22;36815;50.884;20.584;2022-07-06T21:49:22;24;71
50838;DHT22;36815;50.884;20.584;2022-07-06T21:56:09;24;71
50838;DHT22;36815;50.884;20.584;2022-07-06T22:00:06;24;71
50838;DHT22;36815;50.884;20.584;2022-07-06T22:07:18;24;71
50838;DHT22;36815;50.884;20.584;2022-07-06T22:14:13;23;74
50838;DHT22;36815;50.884;20.584;2022-07-06T22:21:24;23;74
50838;DHT22;36815;50.884;20.584;2022-07-06T22:28:19;23;74
50838;DHT22;36815;50.884;20.584;2022-07-06T22:35:04;23;74
50838;DHT22;36815;50.884;20.584;2022-07-06T22:42:19;23;74
50838;DHT22;36815;50.884;20.584;2022-07-06T22:49:20;23;74
50838;DHT22;36815;50.884;20.584;2022-07-06T22:56:02;23;74
50838;DHT22;36815;50.884;20.584;2022-07-06T23:07:05;25;97
50838;DHT22;36815;50.884;20.584;2022-07-06T23:14:02;25;97
50838;DHT22;36815;50.884;20.584;2022-07-06T23:21:02;25;97
50838;DHT22;36815;50.884;20.584;2022-07-06T23:28:18;25;97
50838;DHT22;36815;50.884;20.584;2022-07-06T23:35:23;25;89
50838;DHT22;36815;50.884;20.584;2022-07-06T23:42:05;25;89
50838;DHT22;36815;50.884;20.584;2022-07-06T23:49:06;25;89
50838;DHT22;36815;50.884;20.584;2022-07-06T23:56:05;25;89
